sensor_id;sensor_type;location;lat;lon;timestamp;temperature;humidity
53146;DHT22;39042;53.150;5.898;2023-12-29T00:01:58;10.10;99.90
53146;DHT22;39042;53.150;5.898;2023-12-29T00:04:25;10.20;99.90
53146;DHT22;39042;53.150;5.898;2023-12-29T00:06:51;10.10;99.90
53146;DHT22;39042;53.150;5.898;2023-12-29T00:09:17;10.10;99.90
53146;DHT22;39042;53.150;5.898;2023-12-29T00:11:47;10.20;99.90
53146;DHT22;39042;53.150;5.898;2023-12-29T00:14:13;10.20;99.90
53146;DHT22;39042;53.150;5.898;2023-12-29T00:16:39;10.10;99.90
53146;DHT22;39042;53.150;5.898;2023-12-29T00:19:05;10.20;99.90
53146;DHT22;39042;53.150;5.898;2023-12-29T00:21:31;10.10;99.90
53146;DHT22;39042;53.150;5.898;2023-12-29T00:23:57;10.10;99.90
53146;DHT22;39042;53.150;5.898;2023-12-29T00:26:23;10.10;99.90
53146;DHT22;39042;53.150;5.898;2023-12-29T00:28:55;10.10;99.90
53146;DHT22;39042;53.150;5.898;2023-12-29T00:31:21;10.10;99.90
53146;DHT22;39042;53.150;5.898;2023-12-29T00:33:47;10.10;99.90
53146;DHT22;39042;53.150;5.898;2023-12-29T00:36:15;10.10;99.90
53146;DHT22;39042;53.150;5.898;2023-12-29T00:38:41;10.10;99.90
53146;DHT22;39042;53.150;5.898;2023-12-29T00:41:07;10.20;99.90
53146;DHT22;39042;53.150;5.898;2023-12-29T00:43:33;10.10;99.90
53146;DHT22;39042;53.150;5.898;2023-12-29T00:46:04;10.10;99.90
53146;DHT22;39042;53.150;5.898;2023-12-29T00:48:31;10.10;99.90
53146;DHT22;39042;53.150;5.898;2023-12-29T00:50:57;10.10;99.90
53146;DHT22;39042;53.150;5.898;2023-12-29T00:53:23;10.10;99.90
53146;DHT22;39042;53.150;5.898;2023-12-29T00:55:49;10.10;99.90
53146;DHT22;39042;53.150;5.898;2023-12-29T00:58:15;10.10;99.90
53146;DHT22;39042;53.150;5.898;2023-12-29T01:00:41;10.10;99.90
53146;DHT22;39042;53.150;5.898;2023-12-29T01:03:06;10.10;99.90
53146;DHT22;39042;53.150;5.898;2023-12-29T01:05:32;10.00;99.90
53146;DHT22;39042;53.150;5.898;2023-12-29T01:07:58;10.00;99.90
53146;DHT22;39042;53.150;5.898;2023-12-29T01:10:24;10.00;99.90
53146;DHT22;39042;53.150;5.898;2023-12-29T01:12:50;10.10;99.90
53146;DHT22;39042;53.150;5.898;2023-12-29T01:15:16;10.10;99.90
53146;DHT22;39042;53.150;5.898;2023-12-29T01:17:42;10.10;99.90
53146;DHT22;39042;53.150;5.898;2023-12-29T01:20:08;10.10;99.90
53146;DHT22;39042;53.150;5.898;2023-12-29T01:22:34;10.00;99.90
53146;DHT22;39042;53.150;5.898;2023-12-29T01:25:00;10.00;99.90
53146;DHT22;39042;53.150;5.898;2023-12-29T01:27:27;10.00;99.90
53146;DHT22;39042;53.150;5.898;2023-12-29T01:29:53;10.00;99.90
53146;DHT22;39042;53.150;5.898;2023-12-29T01:32:22;10.00;99.90
53146;DHT22;39042;53.150;5.898;2023-12-29T01:34:48;10.00;99.90
53146;DHT22;39042;53.150;5.898;2023-12-29T01:37:14;10.00;99.90
53146;DHT22;39042;53.150;5.898;2023-12-29T01:39:40;10.00;99.90
53146;DHT22;39042;53.150;5.898;2023-12-29T01:42:06;10.00;99.90
53146;DHT22;39042;53.150;5.898;2023-12-29T01:44:32;10.00;99.90
53146;DHT22;39042;53.150;5.898;2023-12-29T01:47:02;9.90;99.90
53146;DHT22;39042;53.150;5.898;2023-12-29T01:49:33;9.90;99.90
53146;DHT22;39042;53.150;5.898;2023-12-29T01:52:00;9.90;99.90
53146;DHT22;39042;53.150;5.898;2023-12-29T01:54:30;9.90;99.90
53146;DHT22;39042;53.150;5.898;2023-12-29T01:56:59;9.90;99.90
53146;DHT22;39042;53.150;5.898;2023-12-29T01:59:27;9.90;99.90
53146;DHT22;39042;53.150;5.898;2023-12-29T02:01:54;9.90;99.90
53146;DHT22;39042;53.150;5.898;2023-12-29T02:04:27;9.90;99.90
53146;DHT22;39042;53.150;5.898;2023-12-29T02:06:53;9.90;99.90
53146;DHT22;39042;53.150;5.898;2023-12-29T02:09:20;9.90;99.90
53146;DHT22;39042;53.150;5.898;2023-12-29T02:11:46;9.80;99.90
53146;DHT22;39042;53.150;5.898;2023-12-29T02:14:14;9.80;99.90
53146;DHT22;39042;53.150;5.898;2023-12-29T02:19:46;9.70;99.90
53146;DHT22;39042;53.150;5.898;2023-12-29T02:22:14;9.60;99.90
53146;DHT22;39042;53.150;5.898;2023-12-29T02:24:53;9.60;99.90
53146;DHT22;39042;53.150;5.898;2023-12-29T02:30:24;9.50;99.90
53146;DHT22;39042;53.150;5.898;2023-12-29T02:32:55;9.60;99.90
53146;DHT22;39042;53.150;5.898;2023-12-29T02:35:26;9.60;99.90
53146;DHT22;39042;53.150;5.898;2023-12-29T02:37:54;9.60;99.90
53146;DHT22;39042;53.150;5.898;2023-12-29T02:40:21;9.70;99.90
53146;DHT22;39042;53.150;5.898;2023-12-29T02:42:48;9.70;99.90
53146;DHT22;39042;53.150;5.898;2023-12-29T02:45:15;9.70;99.90
53146;DHT22;39042;53.150;5.898;2023-12-29T02:47:41;9.70;99.90
53146;DHT22;39042;53.150;5.898;2023-12-29T02:50:08;9.70;99.90
53146;DHT22;39042;53.150;5.898;2023-12-29T02:52:34;9.80;99.90
53146;DHT22;39042;53.150;5.898;2023-12-29T02:55:00;9.80;99.90
53146;DHT22;39042;53.150;5.898;2023-12-29T02:57:26;9.80;99.90
53146;DHT22;39042;53.150;5.898;2023-12-29T02:59:51;9.80;99.90
53146;DHT22;39042;53.150;5.898;2023-12-29T03:02:18;9.80;99.90
53146;DHT22;39042;53.150;5.898;2023-12-29T03:04:43;9.80;99.90
53146;DHT22;39042;53.150;5.898;2023-12-29T03:07:09;9.80;99.90
53146;DHT22;39042;53.150;5.898;2023-12-29T03:09:35;9.80;99.90
53146;DHT22;39042;53.150;5.898;2023-12-29T03:12:01;9.90;99.90
53146;DHT22;39042;53.150;5.898;2023-12-29T03:14:27;9.90;99.90
53146;DHT22;39042;53.150;5.898;2023-12-29T03:16:53;9.90;99.90
53146;DHT22;39042;53.150;5.898;2023-12-29T03:19:18;9.80;99.90
53146;DHT22;39042;53.150;5.898;2023-12-29T03:21:44;9.80;99.90
53146;DHT22;39042;53.150;5.898;2023-12-29T03:24:10;9.80;99.90
53146;DHT22;39042;53.150;5.898;2023-12-29T03:26:36;9.80;99.90
53146;DHT22;39042;53.150;5.898;2023-12-29T03:29:04;9.80;99.90
53146;DHT22;39042;53.150;5.898;2023-12-29T03:31:30;9.70;99.90
53146;DHT22;39042;53.150;5.898;2023-12-29T03:33:56;9.70;99.90
53146;DHT22;39042;53.150;5.898;2023-12-29T03:36:21;9.70;99.90
53146;DHT22;39042;53.150;5.898;2023-12-29T03:38:47;9.60;99.90
53146;DHT22;39042;53.150;5.898;2023-12-29T03:41:13;9.60;99.90
53146;DHT22;39042;53.150;5.898;2023-12-29T03:43:39;9.60;99.90
53146;DHT22;39042;53.150;5.898;2023-12-29T03:46:19;9.50;99.90
53146;DHT22;39042;53.150;5.898;2023-12-29T03:48:45;9.50;99.90
53146;DHT22;39042;53.150;5.898;2023-12-29T03:51:11;9.40;99.90
53146;DHT22;39042;53.150;5.898;2023-12-29T03:53:37;9.40;99.90
53146;DHT22;39042;53.150;5.898;2023-12-29T03:56:07;9.40;99.90
53146;DHT22;39042;53.150;5.898;2023-12-29T03:58:35;9.40;99.90
53146;DHT22;39042;53.150;5.898;2023-12-29T04:01:01;9.30;99.90
53146;DHT22;39042;53.150;5.898;2023-12-29T04:03:28;9.30;99.90
53146;DHT22;39042;53.150;5.898;2023-12-29T04:05:53;9.40;99.90
53146;DHT22;39042;53.150;5.898;2023-12-29T04:08:19;9.40;99.90
53146;DHT22;39042;53.150;5.898;2023-12-29T04:10:45;9.40;99.90
53146;DHT22;39042;53.150;5.898;2023-12-29T04:13:11;9.40;99.90
53146;DHT22;39042;53.150;5.898;2023-12-29T04:15:37;9.30;99.90
53146;DHT22;39042;53.150;5.898;2023-12-29T04:18:03;9.30;99.90
53146;DHT22;39042;53.150;5.898;2023-12-29T04:20:29;9.30;99.90
53146;DHT22;39042;53.150;5.898;2023-12-29T04:22:55;9.30;99.90
53146;DHT22;39042;53.150;5.898;2023-12-29T04:25:21;9.30;99.90
53146;DHT22;39042;53.150;5.898;2023-12-29T04:27:47;9.30;99.90
53146;DHT22;39042;53.150;5.898;2023-12-29T04:30:13;9.30;99.90
53146;DHT22;39042;53.150;5.898;2023-12-29T04:32:38;9.30;99.90
53146;DHT22;39042;53.150;5.898;2023-12-29T04:35:05;9.30;99.90
53146;DHT22;39042;53.150;5.898;2023-12-29T04:37:31;9.30;99.90
53146;DHT22;39042;53.150;5.898;2023-12-29T04:39:57;9.20;99.90
53146;DHT22;39042;53.150;5.898;2023-12-29T04:42:22;9.20;99.90
53146;DHT22;39042;53.150;5.898;2023-12-29T04:44:48;9.20;99.90
53146;DHT22;39042;53.150;5.898;2023-12-29T04:47:14;9.30;99.90
53146;DHT22;39042;53.150;5.898;2023-12-29T04:49:40;9.30;99.90
53146;DHT22;39042;53.150;5.898;2023-12-29T04:52:05;9.30;99.90
53146;DHT22;39042;53.150;5.898;2023-12-29T04:54:31;9.40;99.90
53146;DHT22;39042;53.150;5.898;2023-12-29T04:56:57;9.40;99.90
53146;DHT22;39042;53.150;5.898;2023-12-29T04:59:23;9.40;99.90
53146;DHT22;39042;53.150;5.898;2023-12-29T05:01:48;9.40;99.90
53146;DHT22;39042;53.150;5.898;2023-12-29T05:04:14;9.40;99.90
53146;DHT22;39042;53.150;5.898;2023-12-29T05:06:42;9.40;99.90
53146;DHT22;39042;53.150;5.898;2023-12-29T05:09:08;9.40;99.90
53146;DHT22;39042;53.150;5.898;2023-12-29T05:11:34;9.40;99.90
53146;DHT22;39042;53.150;5.898;2023-12-29T05:13:59;9.40;99.90
53146;DHT22;39042;53.150;5.898;2023-12-29T05:16:25;9.40;99.90
53146;DHT22;39042;53.150;5.898;2023-12-29T05:18:51;9.40;99.90
53146;DHT22;39042;53.150;5.898;2023-12-29T05:21:17;9.40;99.90
53146;DHT22;39042;53.150;5.898;2023-12-29T05:23:44;9.40;99.90
53146;DHT22;39042;53.150;5.898;2023-12-29T05:26:11;9.40;99.90
53146;DHT22;39042;53.150;5.898;2023-12-29T05:28:37;9.40;99.90
53146;DHT22;39042;53.150;5.898;2023-12-29T05:31:03;9.40;99.90
53146;DHT22;39042;53.150;5.898;2023-12-29T05:33:30;9.40;99.90
53146;DHT22;39042;53.150;5.898;2023-12-29T05:35:56;9.40;99.90
53146;DHT22;39042;53.150;5.898;2023-12-29T05:38:22;9.40;99.90
53146;DHT22;39042;53.150;5.898;2023-12-29T05:40:48;9.50;99.90
53146;DHT22;39042;53.150;5.898;2023-12-29T05:43:18;9.40;99.90
53146;DHT22;39042;53.150;5.898;2023-12-29T05:45:44;9.50;99.90
53146;DHT22;39042;53.150;5.898;2023-12-29T05:48:10;9.50;99.90
53146;DHT22;39042;53.150;5.898;2023-12-29T05:50:36;9.50;99.90
53146;DHT22;39042;53.150;5.898;2023-12-29T05:53:02;9.50;99.90
53146;DHT22;39042;53.150;5.898;2023-12-29T05:55:27;9.50;99.90
53146;DHT22;39042;53.150;5.898;2023-12-29T05:57:53;9.50;99.90
53146;DHT22;39042;53.150;5.898;2023-12-29T06:00:19;9.50;99.90
53146;DHT22;39042;53.150;5.898;2023-12-29T06:02:45;9.60;99.90
53146;DHT22;39042;53.150;5.898;2023-12-29T06:05:11;9.60;99.90
53146;DHT22;39042;53.150;5.898;2023-12-29T06:07:38;9.60;99.90
53146;DHT22;39042;53.150;5.898;2023-12-29T06:10:04;9.60;99.90
53146;DHT22;39042;53.150;5.898;2023-12-29T06:12:31;9.60;99.90
53146;DHT22;39042;53.150;5.898;2023-12-29T06:14:56;9.60;99.90
53146;DHT22;39042;53.150;5.898;2023-12-29T06:17:22;9.60;99.90
53146;DHT22;39042;53.150;5.898;2023-12-29T06:19:48;9.70;99.90
53146;DHT22;39042;53.150;5.898;2023-12-29T06:22:14;9.70;99.90
53146;DHT22;39042;53.150;5.898;2023-12-29T06:24:40;9.70;99.90
53146;DHT22;39042;53.150;5.898;2023-12-29T06:27:08;9.70;99.90
53146;DHT22;39042;53.150;5.898;2023-12-29T06:29:35;9.70;99.90
53146;DHT22;39042;53.150;5.898;2023-12-29T06:32:02;9.70;99.90
53146;DHT22;39042;53.150;5.898;2023-12-29T06:34:28;9.70;99.90
53146;DHT22;39042;53.150;5.898;2023-12-29T06:36:54;9.70;99.90
53146;DHT22;39042;53.150;5.898;2023-12-29T06:39:19;9.70;99.90
53146;DHT22;39042;53.150;5.898;2023-12-29T06:41:45;9.60;99.90
53146;DHT22;39042;53.150;5.898;2023-12-29T06:44:11;9.70;99.90
53146;DHT22;39042;53.150;5.898;2023-12-29T06:46:38;9.70;99.90
53146;DHT22;39042;53.150;5.898;2023-12-29T06:49:04;9.70;99.90
53146;DHT22;39042;53.150;5.898;2023-12-29T06:51:30;9.60;99.90
53146;DHT22;39042;53.150;5.898;2023-12-29T06:53:56;9.60;99.90
53146;DHT22;39042;53.150;5.898;2023-12-29T06:56:21;9.60;99.90
53146;DHT22;39042;53.150;5.898;2023-12-29T06:58:48;9.60;99.90
53146;DHT22;39042;53.150;5.898;2023-12-29T07:01:14;9.60;99.90
53146;DHT22;39042;53.150;5.898;2023-12-29T07:03:41;9.60;99.90
53146;DHT22;39042;53.150;5.898;2023-12-29T07:06:07;9.60;99.90
53146;DHT22;39042;53.150;5.898;2023-12-29T07:08:33;9.60;99.90
53146;DHT22;39042;53.150;5.898;2023-12-29T07:10:59;9.60;99.90
53146;DHT22;39042;53.150;5.898;2023-12-29T07:13:25;9.60;99.90
53146;DHT22;39042;53.150;5.898;2023-12-29T07:15:51;9.70;99.90
53146;DHT22;39042;53.150;5.898;2023-12-29T07:18:17;9.70;99.90
53146;DHT22;39042;53.150;5.898;2023-12-29T07:20:43;9.70;99.90
53146;DHT22;39042;53.150;5.898;2023-12-29T07:23:08;9.70;99.90
53146;DHT22;39042;53.150;5.898;2023-12-29T07:25:34;9.70;99.90
53146;DHT22;39042;53.150;5.898;2023-12-29T07:28:00;9.70;99.90
53146;DHT22;39042;53.150;5.898;2023-12-29T07:30:26;9.70;99.90
53146;DHT22;39042;53.150;5.898;2023-12-29T07:32:52;9.80;99.90
53146;DHT22;39042;53.150;5.898;2023-12-29T07:35:18;9.70;99.90
53146;DHT22;39042;53.150;5.898;2023-12-29T07:37:46;9.70;99.90
53146;DHT22;39042;53.150;5.898;2023-12-29T07:40:13;9.70;99.90
53146;DHT22;39042;53.150;5.898;2023-12-29T07:42:39;9.70;99.90
53146;DHT22;39042;53.150;5.898;2023-12-29T07:45:06;9.60;99.90
53146;DHT22;39042;53.150;5.898;2023-12-29T07:47:32;9.60;99.90
53146;DHT22;39042;53.150;5.898;2023-12-29T07:49:58;9.60;99.90
53146;DHT22;39042;53.150;5.898;2023-12-29T07:52:23;9.50;99.90
53146;DHT22;39042;53.150;5.898;2023-12-29T07:54:49;9.50;99.90
53146;DHT22;39042;53.150;5.898;2023-12-29T07:57:15;9.40;99.90
53146;DHT22;39042;53.150;5.898;2023-12-29T07:59:41;9.40;99.90
53146;DHT22;39042;53.150;5.898;2023-12-29T08:02:07;9.40;99.90
53146;DHT22;39042;53.150;5.898;2023-12-29T08:04:33;9.40;99.90
53146;DHT22;39042;53.150;5.898;2023-12-29T08:06:59;9.40;99.90
53146;DHT22;39042;53.150;5.898;2023-12-29T08:09:25;9.40;99.90
53146;DHT22;39042;53.150;5.898;2023-12-29T08:11:51;9.40;99.90
53146;DHT22;39042;53.150;5.898;2023-12-29T08:14:17;9.30;99.90
53146;DHT22;39042;53.150;5.898;2023-12-29T08:16:43;9.30;99.90
53146;DHT22;39042;53.150;5.898;2023-12-29T08:19:09;9.30;99.90
53146;DHT22;39042;53.150;5.898;2023-12-29T08:21:36;9.40;99.90
53146;DHT22;39042;53.150;5.898;2023-12-29T08:24:02;9.40;99.90
53146;DHT22;39042;53.150;5.898;2023-12-29T08:26:27;9.40;99.90
53146;DHT22;39042;53.150;5.898;2023-12-29T08:28:53;9.40;99.90
53146;DHT22;39042;53.150;5.898;2023-12-29T08:31:19;9.30;99.90
53146;DHT22;39042;53.150;5.898;2023-12-29T08:33:45;9.30;99.90
53146;DHT22;39042;53.150;5.898;2023-12-29T08:36:11;9.20;99.90
53146;DHT22;39042;53.150;5.898;2023-12-29T08:38:38;9.30;99.90
53146;DHT22;39042;53.150;5.898;2023-12-29T08:41:04;9.30;99.90
53146;DHT22;39042;53.150;5.898;2023-12-29T08:43:30;9.20;99.90
53146;DHT22;39042;53.150;5.898;2023-12-29T08:45:56;9.20;99.90
53146;DHT22;39042;53.150;5.898;2023-12-29T08:48:23;9.20;99.90
53146;DHT22;39042;53.150;5.898;2023-12-29T08:50:49;9.20;99.90
53146;DHT22;39042;53.150;5.898;2023-12-29T08:53:16;9.20;99.90
53146;DHT22;39042;53.150;5.898;2023-12-29T08:55:42;9.20;99.90
53146;DHT22;39042;53.150;5.898;2023-12-29T08:58:08;9.20;99.90
53146;DHT22;39042;53.150;5.898;2023-12-29T09:00:34;9.20;99.90
53146;DHT22;39042;53.150;5.898;2023-12-29T09:03:00;9.20;99.90
53146;DHT22;39042;53.150;5.898;2023-12-29T09:05:26;9.20;99.90
53146;DHT22;39042;53.150;5.898;2023-12-29T09:07:51;9.20;99.90
53146;DHT22;39042;53.150;5.898;2023-12-29T09:10:17;9.20;99.90
53146;DHT22;39042;53.150;5.898;2023-12-29T09:12:43;9.20;99.90
53146;DHT22;39042;53.150;5.898;2023-12-29T09:15:09;9.20;99.90
53146;DHT22;39042;53.150;5.898;2023-12-29T09:17:35;9.20;99.90
53146;DHT22;39042;53.150;5.898;2023-12-29T09:20:01;9.30;99.90
53146;DHT22;39042;53.150;5.898;2023-12-29T09:22:27;9.40;99.90
53146;DHT22;39042;53.150;5.898;2023-12-29T09:24:54;9.40;99.90
53146;DHT22;39042;53.150;5.898;2023-12-29T09:27:21;9.50;99.90
53146;DHT22;39042;53.150;5.898;2023-12-29T09:29:47;9.50;99.90
53146;DHT22;39042;53.150;5.898;2023-12-29T09:32:13;9.60;99.90
53146;DHT22;39042;53.150;5.898;2023-12-29T09:34:38;9.60;99.90
53146;DHT22;39042;53.150;5.898;2023-12-29T09:37:04;9.60;99.90
53146;DHT22;39042;53.150;5.898;2023-12-29T09:39:30;9.60;99.90
53146;DHT22;39042;53.150;5.898;2023-12-29T09:41:58;9.60;99.90
53146;DHT22;39042;53.150;5.898;2023-12-29T09:44:27;9.70;99.90
53146;DHT22;39042;53.150;5.898;2023-12-29T09:47:00;9.70;99.90
53146;DHT22;39042;53.150;5.898;2023-12-29T09:49:29;9.70;99.90
53146;DHT22;39042;53.150;5.898;2023-12-29T09:51:57;9.80;99.90
53146;DHT22;39042;53.150;5.898;2023-12-29T09:54:24;9.80;99.90
53146;DHT22;39042;53.150;5.898;2023-12-29T09:56:51;9.80;99.90
53146;DHT22;39042;53.150;5.898;2023-12-29T09:59:17;9.80;99.90
53146;DHT22;39042;53.150;5.898;2023-12-29T10:01:45;9.80;99.90
53146;DHT22;39042;53.150;5.898;2023-12-29T10:04:12;9.80;99.90
53146;DHT22;39042;53.150;5.898;2023-12-29T10:06:41;9.80;99.90
53146;DHT22;39042;53.150;5.898;2023-12-29T10:09:11;9.70;99.90
53146;DHT22;39042;53.150;5.898;2023-12-29T10:11:38;9.70;99.90
53146;DHT22;39042;53.150;5.898;2023-12-29T10:14:16;9.70;99.90
53146;DHT22;39042;53.150;5.898;2023-12-29T10:16:52;9.70;99.90
53146;DHT22;39042;53.150;5.898;2023-12-29T10:19:34;9.60;99.90
53146;DHT22;39042;53.150;5.898;2023-12-29T10:22:16;9.60;99.90
53146;DHT22;39042;53.150;5.898;2023-12-29T10:24:44;9.60;99.90
53146;DHT22;39042;53.150;5.898;2023-12-29T10:27:13;9.50;99.90
53146;DHT22;39042;53.150;5.898;2023-12-29T10:29:39;9.50;99.90
53146;DHT22;39042;53.150;5.898;2023-12-29T10:32:05;9.50;99.90
53146;DHT22;39042;53.150;5.898;2023-12-29T10:34:31;9.50;99.90
53146;DHT22;39042;53.150;5.898;2023-12-29T10:37:01;9.50;99.90
53146;DHT22;39042;53.150;5.898;2023-12-29T10:39:29;9.50;99.90
53146;DHT22;39042;53.150;5.898;2023-12-29T10:42:08;9.40;99.90
53146;DHT22;39042;53.150;5.898;2023-12-29T10:44:35;9.40;99.90
53146;DHT22;39042;53.150;5.898;2023-12-29T10:47:09;9.30;99.90
53146;DHT22;39042;53.150;5.898;2023-12-29T10:49:35;9.20;99.90
53146;DHT22;39042;53.150;5.898;2023-12-29T10:52:15;9.20;99.90
53146;DHT22;39042;53.150;5.898;2023-12-29T10:54:44;9.10;99.90
53146;DHT22;39042;53.150;5.898;2023-12-29T10:57:11;9.10;99.90
53146;DHT22;39042;53.150;5.898;2023-12-29T10:59:38;9.10;99.90
53146;DHT22;39042;53.150;5.898;2023-12-29T11:02:04;9.10;99.90
53146;DHT22;39042;53.150;5.898;2023-12-29T11:04:30;9.10;99.90
53146;DHT22;39042;53.150;5.898;2023-12-29T11:06:56;9.20;99.90
53146;DHT22;39042;53.150;5.898;2023-12-29T11:09:32;9.20;99.90
53146;DHT22;39042;53.150;5.898;2023-12-29T11:12:03;9.20;99.90
53146;DHT22;39042;53.150;5.898;2023-12-29T11:14:33;9.20;99.90
53146;DHT22;39042;53.150;5.898;2023-12-29T11:17:00;9.30;99.90
53146;DHT22;39042;53.150;5.898;2023-12-29T11:19:29;9.30;99.90
53146;DHT22;39042;53.150;5.898;2023-12-29T11:21:56;9.30;99.90
53146;DHT22;39042;53.150;5.898;2023-12-29T11:24:22;9.30;99.90
53146;DHT22;39042;53.150;5.898;2023-12-29T11:26:51;9.40;99.90
53146;DHT22;39042;53.150;5.898;2023-12-29T11:29:18;9.40;99.90
53146;DHT22;39042;53.150;5.898;2023-12-29T11:31:45;9.40;99.90
53146;DHT22;39042;53.150;5.898;2023-12-29T11:34:26;9.40;99.90
53146;DHT22;39042;53.150;5.898;2023-12-29T11:37:11;9.40;99.90
53146;DHT22;39042;53.150;5.898;2023-12-29T11:42:23;9.50;99.90
53146;DHT22;39042;53.150;5.898;2023-12-29T11:44:52;9.50;99.90
53146;DHT22;39042;53.150;5.898;2023-12-29T11:47:37;9.60;99.90
53146;DHT22;39042;53.150;5.898;2023-12-29T11:50:04;9.60;99.90
53146;DHT22;39042;53.150;5.898;2023-12-29T11:52:34;9.70;99.90
53146;DHT22;39042;53.150;5.898;2023-12-29T11:55:13;9.70;99.90
53146;DHT22;39042;53.150;5.898;2023-12-29T11:57:44;9.80;99.90
53146;DHT22;39042;53.150;5.898;2023-12-29T12:00:10;9.80;99.90
53146;DHT22;39042;53.150;5.898;2023-12-29T12:02:39;9.80;99.90
53146;DHT22;39042;53.150;5.898;2023-12-29T12:05:09;9.80;99.90
53146;DHT22;39042;53.150;5.898;2023-12-29T12:12:48;9.60;99.90
53146;DHT22;39042;53.150;5.898;2023-12-29T12:17:59;9.40;99.90
53146;DHT22;39042;53.150;5.898;2023-12-29T12:20:25;9.30;99.90
53146;DHT22;39042;53.150;5.898;2023-12-29T12:22:59;9.30;99.90
53146;DHT22;39042;53.150;5.898;2023-12-29T12:25:26;9.30;99.90
53146;DHT22;39042;53.150;5.898;2023-12-29T12:27:56;9.30;99.90
53146;DHT22;39042;53.150;5.898;2023-12-29T12:30:22;9.20;99.90
53146;DHT22;39042;53.150;5.898;2023-12-29T12:33:03;9.10;99.90
53146;DHT22;39042;53.150;5.898;2023-12-29T12:35:29;9.10;99.90
53146;DHT22;39042;53.150;5.898;2023-12-29T12:38:08;9.00;99.90
53146;DHT22;39042;53.150;5.898;2023-12-29T12:40:35;9.00;99.90
53146;DHT22;39042;53.150;5.898;2023-12-29T12:43:02;9.00;99.90
53146;DHT22;39042;53.150;5.898;2023-12-29T12:45:29;8.90;99.90
53146;DHT22;39042;53.150;5.898;2023-12-29T12:48:13;8.90;99.90
53146;DHT22;39042;53.150;5.898;2023-12-29T12:50:46;8.90;99.90
53146;DHT22;39042;53.150;5.898;2023-12-29T12:53:13;8.80;99.90
53146;DHT22;39042;53.150;5.898;2023-12-29T12:55:50;8.90;99.90
53146;DHT22;39042;53.150;5.898;2023-12-29T12:58:18;8.80;99.90
53146;DHT22;39042;53.150;5.898;2023-12-29T13:00:46;8.80;99.90
53146;DHT22;39042;53.150;5.898;2023-12-29T13:03:13;8.80;99.90
53146;DHT22;39042;53.150;5.898;2023-12-29T13:05:41;8.80;99.90
53146;DHT22;39042;53.150;5.898;2023-12-29T13:08:07;8.80;99.90
53146;DHT22;39042;53.150;5.898;2023-12-29T13:10:34;8.90;99.90
53146;DHT22;39042;53.150;5.898;2023-12-29T13:13:00;8.80;99.90
53146;DHT22;39042;53.150;5.898;2023-12-29T13:15:25;8.90;99.90
53146;DHT22;39042;53.150;5.898;2023-12-29T13:17:54;8.90;99.90
53146;DHT22;39042;53.150;5.898;2023-12-29T13:20:20;8.90;99.90
53146;DHT22;39042;53.150;5.898;2023-12-29T13:22:50;8.90;99.90
53146;DHT22;39042;53.150;5.898;2023-12-29T13:25:26;8.90;99.90
53146;DHT22;39042;53.150;5.898;2023-12-29T13:27:53;8.90;99.90
53146;DHT22;39042;53.150;5.898;2023-12-29T13:30:20;8.90;99.90
53146;DHT22;39042;53.150;5.898;2023-12-29T13:32:48;8.90;99.90
53146;DHT22;39042;53.150;5.898;2023-12-29T13:35:36;8.80;99.90
53146;DHT22;39042;53.150;5.898;2023-12-29T13:38:19;8.90;99.90
53146;DHT22;39042;53.150;5.898;2023-12-29T13:41:01;8.80;99.90
53146;DHT22;39042;53.150;5.898;2023-12-29T13:43:31;8.80;99.90
53146;DHT22;39042;53.150;5.898;2023-12-29T13:45:59;8.80;99.90
53146;DHT22;39042;53.150;5.898;2023-12-29T13:48:26;8.80;99.90
53146;DHT22;39042;53.150;5.898;2023-12-29T13:50:52;8.80;99.90
53146;DHT22;39042;53.150;5.898;2023-12-29T13:53:19;8.80;99.90
53146;DHT22;39042;53.150;5.898;2023-12-29T13:55:45;8.70;99.90
53146;DHT22;39042;53.150;5.898;2023-12-29T13:58:14;8.80;99.90
53146;DHT22;39042;53.150;5.898;2023-12-29T14:00:40;8.80;99.90
53146;DHT22;39042;53.150;5.898;2023-12-29T14:03:10;8.80;99.90
53146;DHT22;39042;53.150;5.898;2023-12-29T14:05:56;8.70;99.90
53146;DHT22;39042;53.150;5.898;2023-12-29T14:08:32;8.70;99.90
53146;DHT22;39042;53.150;5.898;2023-12-29T14:10:59;8.70;99.90
53146;DHT22;39042;53.150;5.898;2023-12-29T14:13:25;8.70;99.90
53146;DHT22;39042;53.150;5.898;2023-12-29T14:15:52;8.70;99.90
53146;DHT22;39042;53.150;5.898;2023-12-29T14:20:59;8.70;99.90
53146;DHT22;39042;53.150;5.898;2023-12-29T14:23:25;8.60;99.90
53146;DHT22;39042;53.150;5.898;2023-12-29T14:25:51;8.60;99.90
53146;DHT22;39042;53.150;5.898;2023-12-29T14:28:18;8.60;99.90
53146;DHT22;39042;53.150;5.898;2023-12-29T14:30:45;8.60;99.90
53146;DHT22;39042;53.150;5.898;2023-12-29T14:33:11;8.50;99.90
53146;DHT22;39042;53.150;5.898;2023-12-29T14:35:37;8.50;99.90
53146;DHT22;39042;53.150;5.898;2023-12-29T14:38:04;8.50;99.90
53146;DHT22;39042;53.150;5.898;2023-12-29T14:40:30;8.50;99.90
53146;DHT22;39042;53.150;5.898;2023-12-29T14:42:55;8.50;99.90
53146;DHT22;39042;53.150;5.898;2023-12-29T14:45:21;8.50;99.90
53146;DHT22;39042;53.150;5.898;2023-12-29T14:47:47;8.50;99.90
53146;DHT22;39042;53.150;5.898;2023-12-29T14:50:16;8.40;99.90
53146;DHT22;39042;53.150;5.898;2023-12-29T14:52:42;8.40;99.90
53146;DHT22;39042;53.150;5.898;2023-12-29T14:55:08;8.50;99.90
53146;DHT22;39042;53.150;5.898;2023-12-29T14:57:34;8.40;99.90
53146;DHT22;39042;53.150;5.898;2023-12-29T15:00:00;8.40;99.90
53146;DHT22;39042;53.150;5.898;2023-12-29T15:02:25;8.40;99.90
53146;DHT22;39042;53.150;5.898;2023-12-29T15:04:51;8.40;99.90
53146;DHT22;39042;53.150;5.898;2023-12-29T15:07:17;8.40;99.90
53146;DHT22;39042;53.150;5.898;2023-12-29T15:09:44;8.40;99.90
53146;DHT22;39042;53.150;5.898;2023-12-29T15:12:10;8.40;99.90
53146;DHT22;39042;53.150;5.898;2023-12-29T15:14:35;8.40;99.90
53146;DHT22;39042;53.150;5.898;2023-12-29T15:17:01;8.40;99.90
53146;DHT22;39042;53.150;5.898;2023-12-29T15:19:27;8.50;99.90
53146;DHT22;39042;53.150;5.898;2023-12-29T15:21:53;8.50;99.90
53146;DHT22;39042;53.150;5.898;2023-12-29T15:24:20;8.50;99.90
53146;DHT22;39042;53.150;5.898;2023-12-29T15:26:46;8.40;99.90
53146;DHT22;39042;53.150;5.898;2023-12-29T15:29:12;8.50;99.90
53146;DHT22;39042;53.150;5.898;2023-12-29T15:31:41;8.50;99.90
53146;DHT22;39042;53.150;5.898;2023-12-29T15:34:07;8.40;99.90
53146;DHT22;39042;53.150;5.898;2023-12-29T15:36:32;8.40;99.90
53146;DHT22;39042;53.150;5.898;2023-12-29T15:38:58;8.40;99.90
53146;DHT22;39042;53.150;5.898;2023-12-29T15:41:25;8.50;99.90
53146;DHT22;39042;53.150;5.898;2023-12-29T15:43:51;8.40;99.90
53146;DHT22;39042;53.150;5.898;2023-12-29T15:46:17;8.40;99.90
53146;DHT22;39042;53.150;5.898;2023-12-29T15:48:44;8.30;99.90
53146;DHT22;39042;53.150;5.898;2023-12-29T15:51:11;8.30;99.90
53146;DHT22;39042;53.150;5.898;2023-12-29T15:53:38;8.40;99.90
53146;DHT22;39042;53.150;5.898;2023-12-29T15:56:15;8.30;99.90
53146;DHT22;39042;53.150;5.898;2023-12-29T15:58:41;8.40;99.90
53146;DHT22;39042;53.150;5.898;2023-12-29T16:01:07;8.30;99.90
53146;DHT22;39042;53.150;5.898;2023-12-29T16:03:33;8.40;99.90
53146;DHT22;39042;53.150;5.898;2023-12-29T16:05:59;8.30;99.90